KMTNet SAAO LOG BOOK 2015-03-12 1  / 1 pages  
                         
Observer: Lim and Shin KMTNet SAAO Observation CCD: 18K CCD    
Weather: Clear Temp: 17/13/11 Hum: 43/63/97 Moon: 68   % Av. seeing:  1.5 D.Temp: -150.7 -132.4 -211.3 -112.5 22.7 19.1 21.4 19.3 3.48E-05
D.Temp: -153.0 -135.3 -212.5 -118.8 39.1 38.2 41.0 40.6 2.81E-05
   
                         
File Number Object PROJID Exp. Start Exp. Time Filter FWHM Comments    
11797 begin OBS 17:00 1.0 B   dmawait = 200    
11798-11807 bias ALL 17:02 0.0 B   dmawait = 75            
11808 dark   17:16 60.0 R   check light leak, ok!          
11809 flat   17:22 5.0 B   exp calc = 3.6, 30,000 ADU    
11810     17:24 5.0 B   exp calc = 5, ICS command lag!!!!!!, 20,000 ADU, the EXPTIME should have been 8 sec!    
11811     17:25 16.0 V   exp calc = 8, 26,000 ADU    
11812     17:27 24.0 V   exp calc = 12, 24,000 ADU    
11813     17:29 40.0 V   exp calc = 20,  25,000 ADU    
11814     17:31 25.0 R   exp calc = 47, 22,000 ADU, signal is lower than that expected from other days    
11815     17:33 40.0 R   exp calc = 80,  24,000 ADU    
11816     17:35 55.0 I   exp calc = 27, 24,000 ADU    
11817     17:37 60.0 I   exp calc = 50, 17,000 ADU    
11818 focus SN 18:10 20.0 I 1.1 wind direction: W, wind speed: 20km/h, focus = -5.86 -10 -350    
11819     18:13 20.0 I 1.1 focus = -5.88, better profile, adopt    
11820 N2784-3   18:22 60.0 B        
11821     18:24 60.0 V        
11822     18:27 60.0 I 1.5      
11823 N2784-4   18:30 60.0 B        
11824     18:32 60.0 V        
11825     18:35 60.0 I 1.3      
11826 N2784-5   18:37 60.0 B                
11827     18:40 60.0 V                
11828     18:42 60.0 I 1.1              
11829 N2784-6   18:45 60.0 B                
11830     18:47 60.0 V        
11831     18:49 60.0 I        
11832 N2784-7   18:52 60.0 B        
11833     18:55 60.0 V        
11834     18:57 60.0 I 1.0(1.4)      
11835 N2784-3   19:00 60.0 B        
11836     19:02 60.0 V        
11837     19:05 60.0 I 1.2(1.4)              
11838 N2784-4   19:07 60.0 B                
11839     19:10 60.0 V                
11840     19:13 60.0 I 1.1(1.5)      
11841 N2784-3   19:15 60.0 B   mistake…    
11842 N2784-5   19:18 60.0 B   the object name should be changed to N2784-5    
11843     19:21 60.0 V   the object name should be changed to N2784-5    
11844     19:24 60.0 I 1.5      
11845 N2784-6   19:26 60.0 B        
11846     19:29 60.0 V        
11847     19:32 60.0 I 1.5(1.8)      
11848 N2784-7   19:34 60.0 B        
11849     19:36 60.0 V        
11850     19:39 60.0 I 1.3(1.6)      
11851 N2784-3   19:42 60.0 B        
11852     19:44 60.0 V        
11853     19:47 60.0 I 1.0(1.6)      
11854 N2784-4   19:49 60.0 B        
11855     19:52 60.0 V        
11856     19:54 60.0 I 1.2(1.7)      
11857 N2784-5   19:57 60.0 B        
11858     19:59 60.0 V        
11859     20:02 60.0 I 1.2(1.6)      
11860 N2784-6   20:04 60.0 B        
11861     20:07 60.0 V        
11862     20:09 60.0 I 1.1(1.6)      
11863 N2784-7   20:12 60.0 B        
11864     20:14 60.0 V        
11865     20:17 60.0 I 1.4(1.7)      
11866 N2784-3   20:19 60.0 B        
11867     20:22 60.0 V        
11868     20:24 60.0 I 1.1(1.4)      
11869 N2784-4   20:27 60.0 B        
 
 
 
                       
         
               
                         
11870     20:30 60.0 V    
11871     20:32 60.0 I 1.2(1.5)  
11872 N2784-5   20:35 60.0 B    
11873     20:37 60.0 V    
11874     20:39 60.0 I    
11875 N2784-6   20:42 60.0 B    
11876     20:44 60.0 V    
11877     20:47 60.0 I 1.3(1.3)  
11878 N2784-7   20:49 60.0 B    
11879     20:52 60.0 V    
11880     20:54 60.0 I 1.2(1.4)  
11881 N2784-3   20:56 60.0 B    
11882     20:59 60.0 V    
11883     21:01 60.0 I 1.5  
11884 N2784-4   21:04 60.0 B    
11885     21:06 60.0 V    
11886     21:09 60.0 I 1.5 Disabled, but this frame is ok
11887 N2784-5   21:13 60.0 B    
11888     21:15 60.0 V    
11889     21:18 60.0 I 1.7(2.1)  
11890 N2784-6   21:20 60.0 B    
11891     21:23 60.0 V            
11892     21:25 60.0 I 1.5(1.6)          
11893 N2784-7   21:28 60.0 B            
11894     21:31 60.0 V            
11895     21:33 60.0 I 1.3(1.5)          
11896 N2784-3   21:36 60.0 B            
11897     21:39 60.0 V    
11898     21:42 60.0 I            
11899 N2784-4   21:45 60.0 B    
11900     21:47 60.0 V            
11901     21:50 60.0 I 1.2          
11902 N2784-5   21:52 60.0 B            
11903     21:55 60.0 V            
11904     21:57 60.0 I            
11905 N2784-6   22:00 60.0 B   wind direction: SW, wind speed: 15km/h    
11906     22:02 60.0 V            
11907     22:05 60.0 I 1.3          
11908 N2784-7   22:07 60.0 B            
11909     22:10 60.0 V            
11910     22:12 60.0 I            
11911 N2784-3   22:15 60.0 B            
11912     22:17 60.0 V   disabled, its ok
11913     22:21 60.0 I 1.7(1.5)          
11914 N2784-4   22:24 60.0 B    
11915     22:26 60.0 V    
11916     22:29 60.0 I 1.5(1.7)  
11917 N2784-5   22:31 60.0 B    
11918     22:34 60.0 V    
11919     22:36 60.0 I 1.5(1.8)  
11920 N2784-6   22:39 60.0 B    
11921     22:41 60.0 V   focus = -5.86
11922     22:43 60.0 I 1.3(1.6)  
11923 N2784-7   22:46 60.0 B    
11924     22:48 60.0 V    
11925     22:51 60.0 I   ISIS down, image disappeared
11926     22:55 60.0 I 1.4(1.5)  
11927 N2784-3   22:58 60.0 B   11927 T-chip fits lost, ICS reboot
11928     23:08 60.0 B    
11929     23:10 60.0 V    
11930     23:13 60.0 I 1.4(1.3)  
         
               
                         
11931 N2784-4   23:16 60.0 B    
11932     23:18 60.0 V   focus = -5.84
11933     23:21 60.0 I 1.5(1.5)  
11934 N2784-5   23:24 60.0 B    
11935     23:28 60.0 V    
11936     23:31 60.0 I 1.2(1.2)  
11937 N2784-6   23:34 60.0 B    
11938     23:36 60.0 V    
11939     23:39 60.0 I 1.3(1.3)  
11940 N2784-7   23:41 60.0 B    
11941     23:44 60.0 V    
11942     23:46 60.0 I    
               
11970-11974 dark ALL 02:30 60.0 I    
11975-11984 bias   02:45 0.0 I   HE box cooing pump was not turned-on, check these frames before you use!
11985 end OBS 03:01 1.0 I    
               
               
               
               
               
               
               
               
               
               
               
               
               
               
               
               
               
               
               
             
               
               
               
               
               
         
               
                         
               
               
               
               
               
             
               
               
               
               
               
               
               
               
               
               
               
               
               
               
               
               
               
               
               
               
               
               
                       
               
               
               
               
               
               
               
               
               
               
               
               
               
               
               
               
               
               
               
               
               
               
               
               
               
               
               
               
               
               
               
               
         
               
                       
               
               
               
               
               
               
               
               
               
               
               
               
               
               
               
               
               
               
               
               
               
               
               
               
               
               
               
               
                       
                       
                       
               
               
               
               
               
               
               
               
               
               
               
               
               
               
               
               
               
               
               
               
               
               
               
               
               
               
               
               
               
               
     
           
                       
               
               
               
               
               
               
               
               
               
               
               
               
               
               
               
               
               
               
               
               
               
               
               
               
               
               
               
               
                       
                       
                       
               
               
               
               
               
               
               
               
               
               
               
               
               
               
               
               
               
               
               
               
               
               
               
               
               
               
               
               
               
               
: